createdAt,value
2024-05-09T00:03:56.515Z,91.97
2024-05-09T00:06:23.168Z,92.08
2024-05-09T00:08:49.827Z,91.71
2024-05-09T00:11:16.629Z,92.17
2024-05-09T00:13:43.401Z,92.36
2024-05-09T00:16:10.147Z,92.16
2024-05-09T00:18:40.223Z,91.99
2024-05-09T00:21:08.844Z,91.95
2024-05-09T00:26:53.034Z,91.52
2024-05-09T00:30:41.615Z,91.82
2024-05-09T00:37:34.048Z,92.53
2024-05-09T00:40:05.800Z,92.23
2024-05-09T00:48:42.573Z,92.45
2024-05-09T00:51:15.339Z,92.34
2024-05-09T00:53:42.440Z,92.14
2024-05-09T00:56:13.597Z,92.39
2024-05-09T00:58:40.711Z,92.17
2024-05-09T01:19:40.292Z,90.79
2024-05-09T01:23:00.054Z,90.69
2024-05-09T01:25:26.734Z,90.43
2024-05-09T01:27:53.330Z,90.89
2024-05-09T01:30:24.374Z,91.21
2024-05-09T01:32:54.836Z,91.67
2024-05-09T01:35:23.574Z,91.60
2024-05-09T01:37:51.941Z,91.29
2024-05-09T01:40:25.209Z,91.02
2024-05-09T01:43:00.482Z,90.92
2024-05-09T01:45:27.941Z,91.13
2024-05-09T01:47:54.825Z,91.33
2024-05-09T01:50:33.080Z,91.54
2024-05-09T01:53:04.303Z,91.78
2024-05-09T01:55:30.873Z,91.93
2024-05-09T01:57:57.480Z,92.32
2024-05-09T02:00:38.077Z,92.41
2024-05-09T02:03:23.306Z,92.27
2024-05-09T02:05:57.986Z,92.75
2024-05-09T02:08:26.019Z,92.57
2024-05-09T02:11:14.851Z,92.68
2024-05-09T02:13:53.656Z,92.43
2024-05-09T02:26:15.457Z,92.55
2024-05-09T02:29:35.018Z,92.55
2024-05-09T02:32:01.823Z,92.78
2024-05-09T02:37:09.131Z,91.95
2024-05-09T02:39:47.661Z,91.83
2024-05-09T02:46:18.911Z,91.66
2024-05-09T02:54:46.900Z,92.50
2024-05-09T02:57:15.827Z,92.71
2024-05-09T02:59:45.312Z,92.48
2024-05-09T03:02:11.966Z,92.45
2024-05-09T03:04:38.858Z,92.44
2024-05-09T03:07:05.520Z,91.90
2024-05-09T03:09:32.167Z,91.50
2024-05-09T03:11:59.252Z,91.52
2024-05-09T03:14:26.201Z,91.54
2024-05-09T03:16:52.891Z,91.63
2024-05-09T03:19:19.533Z,90.88
2024-05-09T03:21:46.198Z,90.47
2024-05-09T03:24:12.784Z,90.09
2024-05-09T03:26:39.403Z,90.15
2024-05-09T03:29:06.268Z,90.49
2024-05-09T03:31:33.325Z,90.76
2024-05-09T03:34:00.087Z,90.85
2024-05-09T03:36:26.764Z,90.85
2024-05-09T03:38:53.809Z,90.67
2024-05-09T03:41:25.645Z,90.07
2024-05-09T03:43:52.281Z,90.25
2024-05-09T03:46:18.891Z,90.00
2024-05-09T03:48:45.606Z,90.36
2024-05-09T03:51:12.516Z,90.45
2024-05-09T03:53:43.433Z,90.30
2024-05-09T03:56:10.237Z,90.30
2024-05-09T03:58:37.740Z,90.63
2024-05-09T04:01:05.099Z,90.36
2024-05-09T04:03:34.740Z,90.72
2024-05-09T04:07:14.096Z,91.12
2024-05-09T04:15:14.989Z,90.80
2024-05-09T04:17:53.872Z,91.19
2024-05-09T04:20:53.284Z,91.72
2024-05-09T04:23:19.962Z,91.75
2024-05-09T04:25:47.138Z,92.11
2024-05-09T04:28:14.441Z,92.26
2024-05-09T04:30:47.218Z,92.25
2024-05-09T04:55:00.352Z,93.56
2024-05-09T05:00:32.271Z,94.24
2024-05-09T05:03:08.410Z,94.83
2024-05-09T05:05:41.865Z,95.60
2024-05-09T05:08:13.245Z,95.61
2024-05-09T05:13:23.822Z,96.49
2024-05-09T05:15:58.864Z,96.90
2024-05-09T05:29:49.805Z,96.98
2024-05-09T05:32:16.680Z,97.23
2024-05-09T05:34:46.321Z,97.65
2024-05-09T05:37:13.047Z,97.81
2024-05-09T05:39:39.558Z,98.09
2024-05-09T05:42:06.253Z,98.03
2024-05-09T06:31:08.762Z,97.40
2024-05-09T07:21:51.778Z,89.17
2024-05-09T07:24:18.659Z,89.68
2024-05-09T07:27:07.514Z,89.00
2024-05-09T07:29:42.165Z,88.01
2024-05-09T07:32:15.145Z,87.16
2024-05-09T07:34:41.951Z,87.16
2024-05-09T07:37:12.770Z,87.51
2024-05-09T07:39:40.204Z,85.40
2024-05-09T07:42:07.195Z,85.32
2024-05-09T07:44:33.928Z,84.76
2024-05-09T07:55:45.372Z,82.90
2024-05-09T08:01:38.239Z,81.68
2024-05-09T08:04:04.959Z,81.71
2024-05-09T08:06:34.522Z,80.94
2024-05-09T08:09:05.439Z,80.50
2024-05-09T08:11:34.820Z,78.69
2024-05-09T08:14:01.600Z,77.87
2024-05-09T08:16:28.695Z,75.33
2024-05-09T08:18:55.527Z,75.88
2024-05-09T08:21:22.187Z,73.59
2024-05-09T08:23:53.714Z,74.59
2024-05-09T08:26:20.598Z,74.89
2024-05-09T08:28:47.360Z,74.04
2024-05-09T08:31:17.108Z,73.36
2024-05-09T08:33:50.226Z,72.26
2024-05-09T08:36:17.424Z,72.77
2024-05-09T08:38:48.660Z,73.58
2024-05-09T08:41:19.550Z,74.22
2024-05-09T08:46:42.759Z,71.34
2024-05-09T08:49:10.334Z,72.11
2024-05-09T08:51:37.259Z,71.51
2024-05-09T08:54:06.671Z,69.93
2024-05-09T08:56:42.354Z,68.48
2024-05-09T08:59:18.004Z,69.14
2024-05-09T09:09:15.723Z,70.00
2024-05-09T09:12:08.580Z,68.46
2024-05-09T09:14:36.126Z,66.78
2024-05-09T09:17:12.703Z,67.54
2024-05-09T09:19:42.195Z,66.21
2024-05-09T09:22:10.467Z,66.80
2024-05-09T09:24:37.121Z,64.93
2024-05-09T09:27:04.204Z,65.82
2024-05-09T09:29:34.321Z,64.62
2024-05-09T09:32:05.355Z,66.07
2024-05-09T09:34:32.671Z,66.97
2024-05-09T09:37:06.511Z,67.28
2024-05-09T09:39:38.936Z,66.92
2024-05-09T09:42:09.119Z,67.57
2024-05-09T09:44:39.463Z,66.58
2024-05-09T09:47:06.566Z,66.40
2024-05-09T09:49:33.537Z,66.50
2024-05-09T09:52:02.307Z,67.57
2024-05-09T10:01:28.471Z,67.34
2024-05-09T10:04:02.431Z,66.26
2024-05-09T10:06:30.127Z,67.05
2024-05-09T10:36:30.494Z,59.53
2024-05-09T11:29:10.889Z,56.41
2024-05-09T11:31:47.724Z,55.89
2024-05-09T11:34:18.099Z,56.09
2024-05-09T12:20:00.256Z,59.48
2024-05-09T12:22:29.776Z,59.93
2024-05-09T12:24:56.327Z,59.52
2024-05-09T12:33:19.863Z,61.36
2024-05-09T12:36:33.346Z,60.78
2024-05-09T12:39:18.026Z,61.17
2024-05-09T12:48:13.342Z,59.78
2024-05-09T12:50:42.004Z,60.64
2024-05-09T12:53:28.873Z,60.48
2024-05-09T12:56:19.722Z,60.65
2024-05-09T12:58:46.311Z,58.76
2024-05-09T13:02:01.224Z,60.33
2024-05-09T13:11:14.871Z,60.22
2024-05-09T13:13:41.511Z,59.85
2024-05-09T13:18:13.061Z,60.61
2024-05-09T13:48:34.696Z,60.40
2024-05-09T13:51:30.152Z,61.69
2024-05-09T13:56:52.504Z,61.31
2024-05-09T14:09:53.636Z,62.32
2024-05-09T14:12:27.636Z,62.52
2024-05-09T14:14:55.453Z,61.70
2024-05-09T14:17:24.310Z,61.28
2024-05-09T14:20:13.972Z,62.47
2024-05-09T14:22:44.973Z,61.27
2024-05-09T14:25:15.404Z,62.06
2024-05-09T14:27:42.182Z,62.13
2024-05-09T14:30:18.601Z,62.18
2024-05-09T14:32:59.310Z,61.65
2024-05-09T16:32:53.397Z,60.27
2024-05-09T16:39:07.144Z,60.16
2024-05-09T16:45:14.959Z,60.63
2024-05-09T17:10:29.656Z,63.29
2024-05-09T17:20:34.357Z,64.51
2024-05-09T17:37:42.889Z,63.86
2024-05-09T17:40:16.881Z,64.61
2024-05-09T18:01:09.885Z,65.38
